createdAt,value
2024-04-18T00:01:14.911Z,2.58
2024-04-18T00:03:42.068Z,2.97
2024-04-18T00:06:08.907Z,3.30
2024-04-18T00:08:35.738Z,3.05
2024-04-18T00:11:02.596Z,3.65
2024-04-18T00:13:29.332Z,3.13
2024-04-18T00:15:56.205Z,3.10
2024-04-18T00:18:23.084Z,3.15
2024-04-18T00:20:50.101Z,3.08
2024-04-18T00:23:16.826Z,2.92
2024-04-18T00:25:43.565Z,3.33
2024-04-18T00:28:10.325Z,2.65
2024-04-18T00:30:37.309Z,3.20
2024-04-18T00:33:04.428Z,2.78
2024-04-18T00:35:31.208Z,3.50
2024-04-18T00:37:57.938Z,2.70
2024-04-18T00:40:24.761Z,2.90
2024-04-18T00:42:51.567Z,2.35
2024-04-18T00:45:20.727Z,2.97
2024-04-18T00:47:49.500Z,3.75
2024-04-18T00:50:17.847Z,2.88
2024-04-18T00:52:47.087Z,2.72
2024-04-18T00:55:14.597Z,3.00
2024-04-18T00:57:41.835Z,2.40
2024-04-18T01:00:09.758Z,2.80
2024-04-18T01:02:37.582Z,3.17
2024-04-18T01:05:04.643Z,2.63
2024-04-18T01:07:31.530Z,3.83
2024-04-18T01:09:58.522Z,3.28
2024-04-18T01:12:25.328Z,2.05
2024-04-18T01:14:52.172Z,3.10
2024-04-18T01:17:18.971Z,3.03
2024-04-18T01:19:45.898Z,3.65
2024-04-18T01:22:12.760Z,3.00
2024-04-18T01:24:39.631Z,3.25
2024-04-18T01:27:09.413Z,3.22
2024-04-18T01:29:36.241Z,2.65
2024-04-18T01:32:03.087Z,3.25
2024-04-18T01:34:29.999Z,3.15
2024-04-18T01:36:56.851Z,3.00
2024-04-18T01:39:23.683Z,3.55
2024-04-18T01:41:50.603Z,3.50
2024-04-18T01:44:17.355Z,3.08
2024-04-18T01:46:44.222Z,3.25
2024-04-18T01:49:11.080Z,3.30
2024-04-18T01:51:39.715Z,2.75
2024-04-18T01:54:06.599Z,2.75
2024-04-18T01:56:33.407Z,2.63
2024-04-18T01:59:09.344Z,2.72
2024-04-18T02:01:36.648Z,3.70
2024-04-18T02:04:03.620Z,3.75
2024-04-18T02:06:30.843Z,3.30
2024-04-18T02:08:57.736Z,3.17
2024-04-18T02:11:24.534Z,2.83
2024-04-18T02:13:51.306Z,2.72
2024-04-18T02:16:18.038Z,3.45
2024-04-18T02:18:44.875Z,3.55
2024-04-18T02:21:11.689Z,2.58
2024-04-18T02:23:38.441Z,3.17
2024-04-18T02:26:05.492Z,3.35
2024-04-18T02:28:35.979Z,3.47
2024-04-18T02:31:06.290Z,3.53
2024-04-18T02:33:43.614Z,3.90
2024-04-18T02:36:11.183Z,3.58
2024-04-18T02:38:38.031Z,3.92
2024-04-18T02:41:06.176Z,3.42
2024-04-18T02:43:32.985Z,3.53
2024-04-18T02:45:59.753Z,4.53
2024-04-18T02:48:26.636Z,4.25
2024-04-18T02:50:53.527Z,4.28
2024-04-18T02:53:20.400Z,3.25
2024-04-18T02:55:47.274Z,4.57
2024-04-18T02:58:14.033Z,3.78
2024-04-18T03:00:40.861Z,4.13
2024-04-18T03:03:07.852Z,3.08
2024-04-18T03:05:34.607Z,3.78
2024-04-18T03:08:01.353Z,4.22
2024-04-18T03:10:28.117Z,3.60
2024-04-18T03:12:55.641Z,3.85
2024-04-18T03:15:22.556Z,3.28
2024-04-18T03:17:52.976Z,3.90
2024-04-18T03:20:20.278Z,3.33
2024-04-18T03:22:47.126Z,4.63
2024-04-18T03:25:14.127Z,3.75
2024-04-18T03:27:40.963Z,4.20
2024-04-18T03:30:08.420Z,3.90
2024-04-18T03:32:39.433Z,4.57
2024-04-18T03:35:06.783Z,3.95
2024-04-18T03:37:35.317Z,4.97
2024-04-18T03:40:03.451Z,4.57
2024-04-18T03:42:30.271Z,4.53
2024-04-18T03:44:58.408Z,4.22
2024-04-18T03:47:25.586Z,4.22
2024-04-18T03:49:52.613Z,3.78
2024-04-18T03:52:19.350Z,4.35
2024-04-18T03:54:56.229Z,4.72
2024-04-18T03:59:55.348Z,4.97
2024-04-18T04:02:22.227Z,3.50
2024-04-18T04:04:51.305Z,4.13
2024-04-18T04:07:18.619Z,3.55
2024-04-18T04:09:46.128Z,4.45
2024-04-18T04:12:13.644Z,4.03
2024-04-18T04:14:40.546Z,4.95
2024-04-18T04:17:09.937Z,4.60
2024-04-18T04:19:36.849Z,4.72
2024-04-18T04:22:04.085Z,3.35
2024-04-18T04:24:30.946Z,3.85
2024-04-18T04:26:57.718Z,4.15
2024-04-18T04:29:24.518Z,4.22
2024-04-18T04:31:51.313Z,3.20
2024-04-18T04:34:18.415Z,4.57
2024-04-18T04:36:45.275Z,3.85
2024-04-18T04:39:12.069Z,4.18
2024-04-18T04:41:38.843Z,4.75
2024-04-18T04:44:05.747Z,3.92
2024-04-18T04:46:32.691Z,4.03
2024-04-18T04:48:59.714Z,3.63
2024-04-18T04:51:26.614Z,4.20
2024-04-18T04:53:54.640Z,3.42
2024-04-18T04:56:21.564Z,3.83
2024-04-18T04:58:48.482Z,4.13
2024-04-18T05:01:15.425Z,4.05
2024-04-18T05:03:42.357Z,3.60
2024-04-18T05:06:09.225Z,4.82
2024-04-18T05:08:36.104Z,3.65
2024-04-18T05:11:03.596Z,4.70
2024-04-18T05:13:30.470Z,4.00
2024-04-18T05:15:57.354Z,3.40
2024-04-18T05:18:24.411Z,5.00
2024-04-18T05:20:51.218Z,4.53
2024-04-18T05:23:18.025Z,5.05
2024-04-18T05:25:45.121Z,3.58
2024-04-18T05:28:14.273Z,4.75
2024-04-18T05:31:02.403Z,3.63
2024-04-18T05:33:30.293Z,3.63
2024-04-18T05:35:57.780Z,3.67
2024-04-18T05:38:24.684Z,4.63
2024-04-18T05:40:51.432Z,4.03
2024-04-18T05:43:18.474Z,4.43
2024-04-18T05:45:46.399Z,4.63
2024-04-18T05:48:13.709Z,4.57
2024-04-18T05:50:41.316Z,4.57
2024-04-18T05:53:08.162Z,4.22
2024-04-18T05:55:36.650Z,4.03
2024-04-18T05:58:03.575Z,4.60
2024-04-18T06:00:30.386Z,5.07
2024-04-18T06:02:57.264Z,4.88
2024-04-18T06:05:24.114Z,4.43
2024-04-18T06:07:50.898Z,5.22
2024-04-18T06:10:18.396Z,4.13
2024-04-18T06:12:45.215Z,4.75
2024-04-18T06:15:12.052Z,4.13
2024-04-18T06:17:38.985Z,4.63
2024-04-18T06:20:06.749Z,4.50
2024-04-18T06:22:33.718Z,4.70
2024-04-18T06:25:00.687Z,3.65
2024-04-18T06:27:27.516Z,4.00
2024-04-18T06:29:54.344Z,4.80
2024-04-18T06:32:21.703Z,4.25
2024-04-18T06:34:48.630Z,3.80
2024-04-18T06:37:16.004Z,4.95
2024-04-18T06:39:43.098Z,4.47
2024-04-18T06:42:09.921Z,5.45
2024-04-18T06:44:37.394Z,4.47
2024-04-18T06:47:04.447Z,5.32
2024-04-18T06:49:31.267Z,4.28
2024-04-18T06:51:58.094Z,4.78
2024-04-18T06:54:25.673Z,4.40
2024-04-18T06:56:52.519Z,4.53
2024-04-18T06:59:19.403Z,4.50
2024-04-18T07:01:46.711Z,3.63
2024-04-18T07:04:13.753Z,4.00
2024-04-18T07:06:40.647Z,3.72
2024-04-18T07:09:10.146Z,4.47
2024-04-18T07:14:03.762Z,3.28
2024-04-18T07:16:30.870Z,8.85
2024-04-18T07:18:58.556Z,4.55
2024-04-18T07:21:25.459Z,3.88
2024-04-18T07:23:52.527Z,4.60
2024-04-18T07:26:19.336Z,3.60
2024-04-18T07:28:46.252Z,3.72
2024-04-18T07:31:13.050Z,3.95
2024-04-18T07:33:39.938Z,3.65
2024-04-18T07:36:07.141Z,3.78
2024-04-18T07:38:33.956Z,3.88
2024-04-18T07:41:00.717Z,4.03
2024-04-18T07:43:27.595Z,3.85
2024-04-18T07:45:54.574Z,3.20
2024-04-18T07:48:21.646Z,2.67
2024-04-18T07:50:49.785Z,2.85
2024-04-18T07:53:16.929Z,2.47
2024-04-18T07:55:45.098Z,3.33
2024-04-18T07:58:12.586Z,2.92
2024-04-18T08:00:41.117Z,3.05
2024-04-18T08:03:10.400Z,3.13
2024-04-18T08:05:40.604Z,3.72
2024-04-18T08:08:12.177Z,3.63
2024-04-18T08:10:53.024Z,2.92
2024-04-18T08:13:31.019Z,3.28
2024-04-18T08:16:02.763Z,3.85
2024-04-18T08:18:30.044Z,2.75
2024-04-18T08:21:00.462Z,3.00
2024-04-18T08:23:27.675Z,3.35
2024-04-18T08:25:54.574Z,2.63
2024-04-18T08:28:21.378Z,2.38
2024-04-18T08:30:48.143Z,2.90
2024-04-18T08:33:15.140Z,2.58
2024-04-18T08:35:45.043Z,1.85
2024-04-18T08:38:13.441Z,2.47
2024-04-18T08:40:45.123Z,2.17
2024-04-18T08:43:13.117Z,2.88
2024-04-18T08:45:41.924Z,1.92
2024-04-18T08:48:11.228Z,2.45
2024-04-18T08:50:39.428Z,3.38
2024-04-18T08:53:06.437Z,2.55
2024-04-18T08:55:36.235Z,3.25
2024-04-18T08:58:10.514Z,3.00
2024-04-18T09:00:41.565Z,3.08
2024-04-18T09:03:10.617Z,3.50
2024-04-18T09:05:38.469Z,3.53
2024-04-18T09:08:06.853Z,2.80
2024-04-18T09:10:33.790Z,3.65
2024-04-18T09:13:04.113Z,2.80
2024-04-18T09:15:34.000Z,4.57
2024-04-18T09:18:08.619Z,3.17
2024-04-18T09:20:40.890Z,3.63
2024-04-18T09:23:07.901Z,3.55
2024-04-18T09:25:38.427Z,3.58
2024-04-18T09:28:06.538Z,3.20
2024-04-18T09:30:33.790Z,3.58
2024-04-18T09:33:05.268Z,3.25
2024-04-18T09:35:35.725Z,3.30
2024-04-18T09:38:09.312Z,3.88
2024-04-18T09:40:41.238Z,3.50
2024-04-18T09:43:16.289Z,4.35
2024-04-18T09:45:51.391Z,4.47
2024-04-18T09:48:19.485Z,3.70
2024-04-18T09:50:48.016Z,4.00
2024-04-18T09:53:16.054Z,3.40
2024-04-18T09:55:43.081Z,3.88
2024-04-18T09:58:11.336Z,3.47
2024-04-18T10:00:38.843Z,2.75
2024-04-18T10:03:07.737Z,2.38
2024-04-18T10:05:37.438Z,3.13
2024-04-18T10:08:05.517Z,2.85
2024-04-18T10:10:33.093Z,3.50
2024-04-18T10:13:00.930Z,2.60
2024-04-18T10:15:27.818Z,3.50
2024-04-18T10:17:54.698Z,3.20
2024-04-18T10:20:29.158Z,3.20
2024-04-18T10:22:57.867Z,2.78
2024-04-18T10:25:24.790Z,2.60
2024-04-18T10:27:52.382Z,3.13
2024-04-18T10:30:22.944Z,2.85
2024-04-18T10:32:53.521Z,3.15
2024-04-18T10:35:21.518Z,3.70
2024-04-18T10:37:51.967Z,2.65
2024-04-18T10:40:18.811Z,3.17
2024-04-18T10:42:45.699Z,3.00
2024-04-18T10:45:13.494Z,3.00
2024-04-18T10:47:41.466Z,2.42
2024-04-18T10:50:09.339Z,2.67
2024-04-18T10:52:36.143Z,3.85
2024-04-18T10:55:05.202Z,3.20
2024-04-18T10:57:32.711Z,2.40
2024-04-18T10:59:59.655Z,2.70
2024-04-18T11:02:26.959Z,2.58
2024-04-18T11:04:54.490Z,2.35
2024-04-18T11:07:21.273Z,2.30
2024-04-18T11:09:48.102Z,2.20
2024-04-18T11:12:15.980Z,2.90
2024-04-18T11:14:42.851Z,3.50
2024-04-18T11:17:09.742Z,2.28
2024-04-18T11:19:36.856Z,2.88
2024-04-18T11:22:03.791Z,2.92
2024-04-18T11:24:30.990Z,2.90
2024-04-18T11:26:58.233Z,2.97
2024-04-18T11:29:28.771Z,2.20
2024-04-18T11:32:07.955Z,2.03
2024-04-18T11:34:35.075Z,2.00
2024-04-18T11:37:04.563Z,2.42
2024-04-18T11:39:31.649Z,1.80
2024-04-18T11:41:58.683Z,1.42
2024-04-18T11:44:25.626Z,1.45
2024-04-18T11:46:54.876Z,2.08
2024-04-18T11:49:21.841Z,1.55
2024-04-18T11:51:48.737Z,1.83
2024-04-18T11:54:15.561Z,1.63
2024-04-18T11:56:42.664Z,1.65
2024-04-18T11:59:09.984Z,2.15
2024-04-18T12:01:37.036Z,1.75
2024-04-18T12:04:04.501Z,1.70
2024-04-18T12:06:31.627Z,1.80
2024-04-18T12:08:58.407Z,1.98
2024-04-18T12:11:25.264Z,1.48
2024-04-18T12:13:52.109Z,1.75
2024-04-18T12:16:19.238Z,1.35
2024-04-18T12:18:46.032Z,1.52
2024-04-18T12:21:12.847Z,1.60
2024-04-18T12:23:44.184Z,1.75
2024-04-18T12:26:11.890Z,1.35
2024-04-18T12:28:39.190Z,1.58
2024-04-18T12:31:06.153Z,1.75
2024-04-18T12:33:33.320Z,1.83
2024-04-18T12:36:00.414Z,1.65
2024-04-18T12:38:27.393Z,1.60
2024-04-18T12:40:54.510Z,1.75
2024-04-18T12:43:21.315Z,1.52
2024-04-18T12:45:48.359Z,2.00
2024-04-18T12:48:15.383Z,1.60
2024-04-18T12:50:42.197Z,1.65
2024-04-18T12:53:09.046Z,1.77
2024-04-18T12:55:36.896Z,1.67
2024-04-18T12:58:04.226Z,1.65
2024-04-18T13:00:31.323Z,1.52
2024-04-18T13:02:58.566Z,1.85
2024-04-18T13:05:25.457Z,1.60
2024-04-18T13:07:52.283Z,1.58
2024-04-18T13:10:20.284Z,1.10
2024-04-18T13:12:47.119Z,1.48
2024-04-18T13:15:13.967Z,2.30
2024-04-18T13:17:40.815Z,2.05
2024-04-18T13:20:08.091Z,1.85
2024-04-18T13:22:35.080Z,2.15
2024-04-18T13:25:01.922Z,1.77
2024-04-18T13:27:31.424Z,1.55
2024-04-18T13:29:59.095Z,2.13
2024-04-18T13:32:26.215Z,2.00
2024-04-18T13:34:56.023Z,1.65
2024-04-18T13:37:22.898Z,2.22
2024-04-18T13:39:57.757Z,1.52
2024-04-18T13:42:26.098Z,2.10
2024-04-18T13:44:54.490Z,1.52
2024-04-18T13:47:21.317Z,1.23
2024-04-18T13:49:48.147Z,1.50
2024-04-18T13:52:14.918Z,1.98
2024-04-18T13:54:41.757Z,2.30
2024-04-18T13:57:08.576Z,2.45
2024-04-18T13:59:35.468Z,4.65
2024-04-18T14:02:04.126Z,2.35
2024-04-18T14:04:31.236Z,2.47
2024-04-18T14:06:58.356Z,3.22
2024-04-18T14:09:33.740Z,2.10
2024-04-18T14:12:00.780Z,2.72
2024-04-18T14:14:29.635Z,2.72
2024-04-18T14:17:15.595Z,2.78
2024-04-18T14:19:42.401Z,2.10
2024-04-18T14:22:09.224Z,2.70
2024-04-18T14:24:36.769Z,2.75
2024-04-18T14:27:03.988Z,2.72
2024-04-18T14:29:30.800Z,2.80
2024-04-18T14:32:00.708Z,2.35
2024-04-18T14:34:28.398Z,2.63
2024-04-18T14:36:55.144Z,2.33
2024-04-18T14:39:21.924Z,2.75
2024-04-18T14:41:48.820Z,2.30
2024-04-18T14:44:15.595Z,3.10
2024-04-18T14:46:42.374Z,2.30
2024-04-18T14:49:12.378Z,2.42
2024-04-18T14:51:39.472Z,2.47
2024-04-18T14:54:06.413Z,2.53
2024-04-18T14:56:33.170Z,2.60
2024-04-18T14:59:00.525Z,2.35
2024-04-18T15:01:27.442Z,2.42
2024-04-18T15:03:54.710Z,2.45
2024-04-18T15:06:22.852Z,1.92
2024-04-18T15:08:49.634Z,1.63
2024-04-18T15:11:16.875Z,1.50
2024-04-18T15:13:43.703Z,2.00
2024-04-18T15:16:10.697Z,4.15
2024-04-18T15:18:37.727Z,2.28
2024-04-18T15:21:04.810Z,1.95
2024-04-18T15:23:31.662Z,2.00
2024-04-18T15:25:58.648Z,2.40
2024-04-18T15:28:26.053Z,2.30
2024-04-18T15:30:52.882Z,2.63
2024-04-18T15:33:19.907Z,2.35
2024-04-18T15:35:47.121Z,2.95
2024-04-18T15:38:14.016Z,2.25
2024-04-18T15:40:40.858Z,2.50
2024-04-18T15:43:07.827Z,3.08
2024-04-18T15:45:40.766Z,2.35
2024-04-18T15:48:09.888Z,2.10
2024-04-18T15:50:42.661Z,1.98
2024-04-18T15:53:30.489Z,2.60
2024-04-18T15:56:01.745Z,1.90
2024-04-18T15:58:28.582Z,2.75
2024-04-18T16:00:55.415Z,1.80
2024-04-18T16:03:22.292Z,2.05
2024-04-18T16:05:49.133Z,2.20
2024-04-18T16:08:15.879Z,2.15
2024-04-18T16:10:42.759Z,2.55
2024-04-18T16:13:09.520Z,1.63
2024-04-18T16:15:36.335Z,2.30
2024-04-18T16:18:09.239Z,2.65
2024-04-18T16:20:36.085Z,2.22
2024-04-18T16:23:05.924Z,2.30
2024-04-18T16:25:39.422Z,3.55
2024-04-18T16:28:06.732Z,3.08
2024-04-18T16:30:33.545Z,2.42
2024-04-18T16:33:00.568Z,2.42
2024-04-18T16:35:27.397Z,2.65
2024-04-18T16:37:54.179Z,2.03
2024-04-18T16:40:20.980Z,2.75
2024-04-18T16:42:47.746Z,2.10
2024-04-18T16:45:14.632Z,2.05
2024-04-18T16:47:41.411Z,2.30
2024-04-18T16:50:08.471Z,2.05
2024-04-18T16:52:35.224Z,3.00
2024-04-18T16:55:02.071Z,2.40
2024-04-18T16:57:30.553Z,1.90
2024-04-18T16:59:58.063Z,2.60
2024-04-18T17:02:24.822Z,2.72
2024-04-18T17:04:51.594Z,2.67
2024-04-18T17:07:18.383Z,2.22
2024-04-18T17:09:45.228Z,2.33
2024-04-18T17:12:11.988Z,2.03
2024-04-18T17:14:39.281Z,1.95
2024-04-18T17:17:06.320Z,2.10
2024-04-18T17:19:34.581Z,2.40
2024-04-18T17:22:01.526Z,2.22
2024-04-18T17:24:28.391Z,2.30
2024-04-18T17:26:55.146Z,2.25
2024-04-18T17:29:21.891Z,2.83
2024-04-18T17:31:48.726Z,2.22
2024-04-18T17:34:15.551Z,1.80
2024-04-18T17:36:42.443Z,1.63
2024-04-18T17:39:09.446Z,1.38
2024-04-18T17:41:36.248Z,1.02
2024-04-18T17:44:03.232Z,1.70
2024-04-18T17:46:30.028Z,1.05
2024-04-18T17:48:56.848Z,1.50
2024-04-18T17:51:23.677Z,1.80
2024-04-18T17:53:50.423Z,2.38
2024-04-18T17:56:17.196Z,1.75
2024-04-18T17:58:44.021Z,1.80
2024-04-18T18:01:11.002Z,1.85
2024-04-18T18:03:38.159Z,1.40
2024-04-18T18:06:05.137Z,2.13
2024-04-18T18:08:31.932Z,2.38
2024-04-18T18:10:58.717Z,2.47
2024-04-18T18:13:25.462Z,2.45
2024-04-18T18:15:52.190Z,2.72
2024-04-18T18:18:19.071Z,2.80
2024-04-18T18:20:46.022Z,2.55
2024-04-18T18:23:15.391Z,2.22
2024-04-18T18:25:43.423Z,2.40
2024-04-18T18:28:10.143Z,3.53
2024-04-18T18:30:39.078Z,1.60
2024-04-18T18:33:05.984Z,2.22
2024-04-18T18:35:32.781Z,2.47
2024-04-18T18:37:59.527Z,3.00
2024-04-18T18:40:26.362Z,2.78
2024-04-18T18:42:53.079Z,2.90
2024-04-18T18:45:19.981Z,2.65
2024-04-18T18:47:46.852Z,2.63
2024-04-18T18:50:13.780Z,2.30
2024-04-18T18:52:40.624Z,1.88
2024-04-18T18:55:07.887Z,2.60
2024-04-18T18:57:34.742Z,6.20
2024-04-18T19:00:01.506Z,5.70
2024-04-18T19:02:28.650Z,6.05
2024-04-18T19:04:55.462Z,10.38
2024-04-18T19:07:22.199Z,5.97
2024-04-18T19:09:48.973Z,4.50
2024-04-18T19:12:15.848Z,3.85
2024-04-18T19:14:42.620Z,2.63
2024-04-18T19:17:09.793Z,2.72
2024-04-18T19:19:37.170Z,2.03
2024-04-18T19:22:04.398Z,2.08
2024-04-18T19:24:31.227Z,2.20
2024-04-18T19:27:00.725Z,2.08
2024-04-18T19:32:11.559Z,1.63
2024-04-18T19:34:38.468Z,2.10
2024-04-18T19:37:05.324Z,3.03
2024-04-18T19:39:32.388Z,2.70
2024-04-18T19:42:00.721Z,2.78
2024-04-18T19:44:27.494Z,2.88
2024-04-18T19:46:54.275Z,2.42
2024-04-18T19:49:21.125Z,3.17
2024-04-18T19:51:47.997Z,2.65
2024-04-18T19:54:14.814Z,2.78
2024-04-18T19:56:41.594Z,2.53
2024-04-18T19:59:08.325Z,2.50
2024-04-18T20:01:35.164Z,2.35
2024-04-18T20:04:02.223Z,2.15
2024-04-18T20:06:29.139Z,2.38
2024-04-18T20:08:55.908Z,2.80
2024-04-18T20:11:22.829Z,2.20
2024-04-18T20:13:49.635Z,2.65
2024-04-18T20:16:16.423Z,2.97
2024-04-18T20:18:43.350Z,2.22
2024-04-18T20:21:10.143Z,3.13
2024-04-18T20:23:36.969Z,2.42
2024-04-18T20:26:03.902Z,2.75
2024-04-18T20:28:30.686Z,2.40
2024-04-18T20:30:57.525Z,2.47
2024-04-18T20:33:24.437Z,2.97
2024-04-18T20:35:51.287Z,2.50
2024-04-18T20:38:18.076Z,2.85
2024-04-18T20:40:44.848Z,3.33
2024-04-18T20:43:11.692Z,3.35
2024-04-18T20:45:38.509Z,3.30
2024-04-18T20:48:05.931Z,3.05
2024-04-18T20:50:33.518Z,3.00
2024-04-18T20:53:00.291Z,2.53
2024-04-18T20:55:27.213Z,3.88
2024-04-18T20:57:54.094Z,3.33
2024-04-18T21:00:27.932Z,2.67
2024-04-18T21:02:54.986Z,3.47
2024-04-18T21:05:21.874Z,3.05
2024-04-18T21:07:48.766Z,2.63
2024-04-18T21:10:15.724Z,2.50
2024-04-18T21:12:42.706Z,2.78
2024-04-18T21:15:09.740Z,2.83
2024-04-18T21:17:36.722Z,3.75
2024-04-18T21:20:03.939Z,3.35
2024-04-18T21:22:30.997Z,3.38
2024-04-18T21:24:58.098Z,3.00
2024-04-18T21:27:25.005Z,3.45
2024-04-18T21:29:52.520Z,2.58
2024-04-18T21:32:19.483Z,2.65
2024-04-18T21:34:46.389Z,2.92
2024-04-18T21:37:13.317Z,1.70
2024-04-18T21:39:40.328Z,2.75
2024-04-18T21:42:07.432Z,2.72
2024-04-18T21:44:34.286Z,2.10
2024-04-18T21:47:01.147Z,2.67
2024-04-18T21:49:28.063Z,2.88
2024-04-18T21:51:54.954Z,2.33
2024-04-18T21:54:21.851Z,2.78
2024-04-18T21:56:48.719Z,2.92
2024-04-18T21:59:16.245Z,2.58
2024-04-18T22:01:43.345Z,2.05
2024-04-18T22:04:11.327Z,1.67
2024-04-18T22:06:38.654Z,2.75
2024-04-18T22:09:05.688Z,2.70
2024-04-18T22:11:32.773Z,2.42
2024-04-18T22:13:59.731Z,2.80
2024-04-18T22:16:26.789Z,2.40
2024-04-18T22:18:53.853Z,2.67
2024-04-18T22:21:21.021Z,2.70
2024-04-18T22:23:50.736Z,2.50
2024-04-18T22:26:19.186Z,2.30
2024-04-18T22:28:46.133Z,2.70
2024-04-18T22:31:13.713Z,2.42
2024-04-18T22:33:41.096Z,2.55
2024-04-18T22:36:08.344Z,2.85
2024-04-18T22:38:35.364Z,2.67
2024-04-18T22:41:02.298Z,2.10
2024-04-18T22:43:29.437Z,2.10
2024-04-18T22:45:56.358Z,2.70
2024-04-18T22:48:23.720Z,2.40
2024-04-18T22:50:51.031Z,2.33
2024-04-18T22:53:18.433Z,2.65
2024-04-18T22:55:45.306Z,2.50
2024-04-18T22:58:13.535Z,2.47
2024-04-18T23:00:41.374Z,1.65
2024-04-18T23:03:08.665Z,2.78
2024-04-18T23:05:35.620Z,2.47
2024-04-18T23:08:03.001Z,2.35
2024-04-18T23:10:29.862Z,2.88
2024-04-18T23:12:56.721Z,1.70
2024-04-18T23:15:23.625Z,2.20
2024-04-18T23:17:50.682Z,2.47
2024-04-18T23:20:18.357Z,3.17
2024-04-18T23:22:45.455Z,2.55
2024-04-18T23:25:12.408Z,2.22
2024-04-18T23:27:39.291Z,2.33
2024-04-18T23:30:06.938Z,2.53
2024-04-18T23:32:33.922Z,2.53
2024-04-18T23:35:00.852Z,2.75
2024-04-18T23:37:27.708Z,2.47
2024-04-18T23:39:54.610Z,2.30
2024-04-18T23:42:21.467Z,2.30
2024-04-18T23:44:48.321Z,3.10
2024-04-18T23:47:15.212Z,2.22
2024-04-18T23:49:42.093Z,2.35
2024-04-18T23:52:08.966Z,2.10
2024-04-18T23:54:35.855Z,2.60
2024-04-18T23:57:02.788Z,2.30
2024-04-18T23:59:29.681Z,3.10
